sensor_id;sensor_type;location;lat;lon;timestamp;temperature;humidity
11214;DHT22;5664;48.606;13.456;2022-10-16T00:01:33;19.60;99.90
11214;DHT22;5664;48.606;13.456;2022-10-16T00:03:59;19.60;99.90
11214;DHT22;5664;48.606;13.456;2022-10-16T00:06:25;19.60;99.90
11214;DHT22;5664;48.606;13.456;2022-10-16T00:08:51;19.60;99.90
11214;DHT22;5664;48.606;13.456;2022-10-16T00:11:18;19.60;99.90
11214;DHT22;5664;48.606;13.456;2022-10-16T00:13:45;19.60;99.90
11214;DHT22;5664;48.606;13.456;2022-10-16T00:16:12;19.60;99.90
11214;DHT22;5664;48.606;13.456;2022-10-16T00:18:38;19.60;99.90
11214;DHT22;5664;48.606;13.456;2022-10-16T00:21:04;19.60;99.90
11214;DHT22;5664;48.606;13.456;2022-10-16T00:23:30;19.60;99.90
11214;DHT22;5664;48.606;13.456;2022-10-16T00:25:57;19.60;99.90
11214;DHT22;5664;48.606;13.456;2022-10-16T00:28:23;19.60;99.90
11214;DHT22;5664;48.606;13.456;2022-10-16T00:30:49;19.60;99.90
11214;DHT22;5664;48.606;13.456;2022-10-16T00:33:14;19.60;99.90
11214;DHT22;5664;48.606;13.456;2022-10-16T00:35:40;19.60;99.90
11214;DHT22;5664;48.606;13.456;2022-10-16T00:38:05;19.60;99.90
11214;DHT22;5664;48.606;13.456;2022-10-16T00:40:31;19.60;99.90
11214;DHT22;5664;48.606;13.456;2022-10-16T00:42:57;19.60;99.90
11214;DHT22;5664;48.606;13.456;2022-10-16T00:45:22;19.60;99.90
11214;DHT22;5664;48.606;13.456;2022-10-16T00:47:48;19.60;99.90
11214;DHT22;5664;48.606;13.456;2022-10-16T00:52:49;19.60;99.90
11214;DHT22;5664;48.606;13.456;2022-10-16T00:55:15;19.60;99.90
11214;DHT22;5664;48.606;13.456;2022-10-16T00:57:41;19.70;99.90
11214;DHT22;5664;48.606;13.456;2022-10-16T01:00:08;19.60;99.90
11214;DHT22;5664;48.606;13.456;2022-10-16T01:02:34;19.60;99.90
11214;DHT22;5664;48.606;13.456;2022-10-16T01:05:00;19.60;99.90
11214;DHT22;5664;48.606;13.456;2022-10-16T01:10:02;19.60;99.90
11214;DHT22;5664;48.606;13.456;2022-10-16T01:14:54;19.60;99.90
11214;DHT22;5664;48.606;13.456;2022-10-16T01:20:07;19.60;99.90
11214;DHT22;5664;48.606;13.456;2022-10-16T01:22:37;19.60;99.90
11214;DHT22;5664;48.606;13.456;2022-10-16T01:25:05;19.60;99.90
11214;DHT22;5664;48.606;13.456;2022-10-16T01:27:32;19.60;99.90
11214;DHT22;5664;48.606;13.456;2022-10-16T01:30:10;19.60;99.90
11214;DHT22;5664;48.606;13.456;2022-10-16T01:35:26;19.60;99.90
11214;DHT22;5664;48.606;13.456;2022-10-16T01:37:54;19.60;99.90
11214;DHT22;5664;48.606;13.456;2022-10-16T01:40:23;19.60;99.90
11214;DHT22;5664;48.606;13.456;2022-10-16T01:43:11;19.60;99.90
11214;DHT22;5664;48.606;13.456;2022-10-16T01:45:35;19.60;99.90
11214;DHT22;5664;48.606;13.456;2022-10-16T01:48:01;19.60;99.90
11214;DHT22;5664;48.606;13.456;2022-10-16T01:50:31;19.60;99.90
11214;DHT22;5664;48.606;13.456;2022-10-16T01:52:57;19.60;99.90
11214;DHT22;5664;48.606;13.456;2022-10-16T01:55:28;19.60;99.90
11214;DHT22;5664;48.606;13.456;2022-10-16T01:57:55;19.60;99.90
11214;DHT22;5664;48.606;13.456;2022-10-16T02:00:21;19.60;99.90
11214;DHT22;5664;48.606;13.456;2022-10-16T02:02:48;19.60;99.90
11214;DHT22;5664;48.606;13.456;2022-10-16T02:07:39;19.60;99.90
11214;DHT22;5664;48.606;13.456;2022-10-16T02:10:07;19.60;99.90
11214;DHT22;5664;48.606;13.456;2022-10-16T02:12:33;19.60;99.90
11214;DHT22;5664;48.606;13.456;2022-10-16T02:15:00;19.60;99.90
11214;DHT22;5664;48.606;13.456;2022-10-16T02:17:26;19.60;99.90
11214;DHT22;5664;48.606;13.456;2022-10-16T02:19:52;19.60;99.90
11214;DHT22;5664;48.606;13.456;2022-10-16T02:22:23;19.60;99.90
11214;DHT22;5664;48.606;13.456;2022-10-16T02:24:52;19.60;99.90
11214;DHT22;5664;48.606;13.456;2022-10-16T02:30:07;19.60;99.90
11214;DHT22;5664;48.606;13.456;2022-10-16T02:32:33;19.60;99.90
11214;DHT22;5664;48.606;13.456;2022-10-16T02:34:59;19.60;99.90
11214;DHT22;5664;48.606;13.456;2022-10-16T02:37:25;19.60;99.90
11214;DHT22;5664;48.606;13.456;2022-10-16T02:39:51;19.60;99.90
11214;DHT22;5664;48.606;13.456;2022-10-16T02:42:17;19.60;99.90
11214;DHT22;5664;48.606;13.456;2022-10-16T02:44:43;19.60;99.90
11214;DHT22;5664;48.606;13.456;2022-10-16T02:47:08;19.60;99.90
11214;DHT22;5664;48.606;13.456;2022-10-16T02:49:34;19.60;99.90
11214;DHT22;5664;48.606;13.456;2022-10-16T02:51:59;19.60;99.90
11214;DHT22;5664;48.606;13.456;2022-10-16T02:54:25;19.60;99.90
11214;DHT22;5664;48.606;13.456;2022-10-16T02:56:50;19.60;99.90
11214;DHT22;5664;48.606;13.456;2022-10-16T02:59:17;19.60;99.90
11214;DHT22;5664;48.606;13.456;2022-10-16T03:01:42;19.60;99.90
11214;DHT22;5664;48.606;13.456;2022-10-16T03:04:08;19.60;99.90
11214;DHT22;5664;48.606;13.456;2022-10-16T03:06:33;19.60;99.90
11214;DHT22;5664;48.606;13.456;2022-10-16T03:08:59;19.60;99.90
11214;DHT22;5664;48.606;13.456;2022-10-16T03:11:27;19.60;99.90
11214;DHT22;5664;48.606;13.456;2022-10-16T03:13:53;19.60;99.90
11214;DHT22;5664;48.606;13.456;2022-10-16T03:16:18;19.60;99.90
11214;DHT22;5664;48.606;13.456;2022-10-16T03:18:47;19.60;99.90
11214;DHT22;5664;48.606;13.456;2022-10-16T03:21:13;19.60;99.90
11214;DHT22;5664;48.606;13.456;2022-10-16T03:23:38;19.60;99.90
11214;DHT22;5664;48.606;13.456;2022-10-16T03:26:04;19.60;99.90
11214;DHT22;5664;48.606;13.456;2022-10-16T03:28:29;19.60;99.90
11214;DHT22;5664;48.606;13.456;2022-10-16T03:30:54;19.60;99.90
11214;DHT22;5664;48.606;13.456;2022-10-16T03:33:20;19.60;99.90
11214;DHT22;5664;48.606;13.456;2022-10-16T03:35:50;19.60;99.90
11214;DHT22;5664;48.606;13.456;2022-10-16T03:38:15;19.60;99.90
11214;DHT22;5664;48.606;13.456;2022-10-16T03:40:41;19.60;99.90
11214;DHT22;5664;48.606;13.456;2022-10-16T03:43:06;19.60;99.90
11214;DHT22;5664;48.606;13.456;2022-10-16T03:45:32;19.60;99.90
11214;DHT22;5664;48.606;13.456;2022-10-16T03:47:57;19.60;99.90
11214;DHT22;5664;48.606;13.456;2022-10-16T03:50:23;19.60;99.90
11214;DHT22;5664;48.606;13.456;2022-10-16T03:52:48;19.60;99.90
11214;DHT22;5664;48.606;13.456;2022-10-16T03:55:13;19.60;99.90
11214;DHT22;5664;48.606;13.456;2022-10-16T03:57:39;19.60;99.90
11214;DHT22;5664;48.606;13.456;2022-10-16T04:00:05;19.60;99.90
11214;DHT22;5664;48.606;13.456;2022-10-16T04:02:31;19.60;99.90
11214;DHT22;5664;48.606;13.456;2022-10-16T04:04:56;19.60;99.90
11214;DHT22;5664;48.606;13.456;2022-10-16T04:07:21;19.60;99.90
11214;DHT22;5664;48.606;13.456;2022-10-16T04:09:47;19.60;99.90
11214;DHT22;5664;48.606;13.456;2022-10-16T04:12:12;19.60;99.90
11214;DHT22;5664;48.606;13.456;2022-10-16T04:14:38;19.60;99.90
11214;DHT22;5664;48.606;13.456;2022-10-16T04:17:03;19.60;99.90
11214;DHT22;5664;48.606;13.456;2022-10-16T04:19:29;19.60;99.90
11214;DHT22;5664;48.606;13.456;2022-10-16T04:21:54;19.60;99.90
11214;DHT22;5664;48.606;13.456;2022-10-16T04:24:20;19.60;99.90
11214;DHT22;5664;48.606;13.456;2022-10-16T04:26:45;19.60;99.90
11214;DHT22;5664;48.606;13.456;2022-10-16T04:29:10;19.60;99.90
11214;DHT22;5664;48.606;13.456;2022-10-16T04:31:36;19.60;99.90
11214;DHT22;5664;48.606;13.456;2022-10-16T04:34:01;19.60;99.90
11214;DHT22;5664;48.606;13.456;2022-10-16T04:36:27;19.60;99.90
11214;DHT22;5664;48.606;13.456;2022-10-16T04:38:52;19.60;99.90
11214;DHT22;5664;48.606;13.456;2022-10-16T04:41:18;19.60;99.90
11214;DHT22;5664;48.606;13.456;2022-10-16T04:43:44;19.60;99.90
11214;DHT22;5664;48.606;13.456;2022-10-16T04:46:09;19.60;99.90
11214;DHT22;5664;48.606;13.456;2022-10-16T04:48:35;19.60;99.90
11214;DHT22;5664;48.606;13.456;2022-10-16T04:51:00;19.60;99.90
11214;DHT22;5664;48.606;13.456;2022-10-16T04:53:26;19.60;99.90
11214;DHT22;5664;48.606;13.456;2022-10-16T04:55:51;19.60;99.90
11214;DHT22;5664;48.606;13.456;2022-10-16T04:58:17;19.60;99.90
11214;DHT22;5664;48.606;13.456;2022-10-16T05:00:43;19.60;99.90
11214;DHT22;5664;48.606;13.456;2022-10-16T05:03:09;19.60;99.90
11214;DHT22;5664;48.606;13.456;2022-10-16T05:05:35;19.60;99.90
11214;DHT22;5664;48.606;13.456;2022-10-16T05:08:01;19.60;99.90
11214;DHT22;5664;48.606;13.456;2022-10-16T05:10:26;19.60;99.90
11214;DHT22;5664;48.606;13.456;2022-10-16T05:12:52;19.60;99.90
11214;DHT22;5664;48.606;13.456;2022-10-16T05:15:17;19.60;99.90
11214;DHT22;5664;48.606;13.456;2022-10-16T05:17:43;19.60;99.90
11214;DHT22;5664;48.606;13.456;2022-10-16T05:20:09;19.60;99.90
11214;DHT22;5664;48.606;13.456;2022-10-16T05:22:34;19.60;99.90
11214;DHT22;5664;48.606;13.456;2022-10-16T05:25:00;19.60;99.90
11214;DHT22;5664;48.606;13.456;2022-10-16T05:27:25;19.60;99.90
11214;DHT22;5664;48.606;13.456;2022-10-16T05:29:51;19.70;99.90
11214;DHT22;5664;48.606;13.456;2022-10-16T05:32:16;19.70;99.90
11214;DHT22;5664;48.606;13.456;2022-10-16T05:34:42;19.60;99.90
11214;DHT22;5664;48.606;13.456;2022-10-16T05:37:08;19.60;99.90
11214;DHT22;5664;48.606;13.456;2022-10-16T05:39:34;19.70;99.90
11214;DHT22;5664;48.606;13.456;2022-10-16T05:41:59;19.60;99.90
11214;DHT22;5664;48.606;13.456;2022-10-16T05:44:24;19.70;99.90
11214;DHT22;5664;48.606;13.456;2022-10-16T05:46:50;19.60;99.90
11214;DHT22;5664;48.606;13.456;2022-10-16T05:49:15;19.60;99.90
11214;DHT22;5664;48.606;13.456;2022-10-16T05:51:41;19.60;99.90
11214;DHT22;5664;48.606;13.456;2022-10-16T05:54:07;19.70;99.90
11214;DHT22;5664;48.606;13.456;2022-10-16T05:56:32;19.60;99.90
11214;DHT22;5664;48.606;13.456;2022-10-16T05:58:58;19.60;99.90
11214;DHT22;5664;48.606;13.456;2022-10-16T06:01:23;19.60;99.90
11214;DHT22;5664;48.606;13.456;2022-10-16T06:03:50;19.70;99.90
11214;DHT22;5664;48.606;13.456;2022-10-16T06:06:16;19.60;99.90
11214;DHT22;5664;48.606;13.456;2022-10-16T06:08:42;19.60;99.90
11214;DHT22;5664;48.606;13.456;2022-10-16T06:11:10;19.70;99.90
11214;DHT22;5664;48.606;13.456;2022-10-16T06:13:35;19.60;99.90
11214;DHT22;5664;48.606;13.456;2022-10-16T06:16:01;19.70;99.90
11214;DHT22;5664;48.606;13.456;2022-10-16T06:18:27;19.70;99.90
11214;DHT22;5664;48.606;13.456;2022-10-16T06:20:53;19.70;99.90
11214;DHT22;5664;48.606;13.456;2022-10-16T06:23:19;19.70;99.90
11214;DHT22;5664;48.606;13.456;2022-10-16T06:25:44;19.70;99.90
11214;DHT22;5664;48.606;13.456;2022-10-16T06:28:10;19.70;99.90
11214;DHT22;5664;48.606;13.456;2022-10-16T06:30:35;19.70;99.90
11214;DHT22;5664;48.606;13.456;2022-10-16T06:33:00;19.70;99.90
11214;DHT22;5664;48.606;13.456;2022-10-16T06:35:26;19.70;99.90
11214;DHT22;5664;48.606;13.456;2022-10-16T06:37:54;19.70;99.90
11214;DHT22;5664;48.606;13.456;2022-10-16T06:40:20;19.70;99.90
11214;DHT22;5664;48.606;13.456;2022-10-16T06:42:45;19.70;99.90
11214;DHT22;5664;48.606;13.456;2022-10-16T06:45:10;19.60;99.90
11214;DHT22;5664;48.606;13.456;2022-10-16T06:47:36;19.70;99.90
11214;DHT22;5664;48.606;13.456;2022-10-16T06:50:02;19.60;99.90
11214;DHT22;5664;48.606;13.456;2022-10-16T06:52:28;19.60;99.90
11214;DHT22;5664;48.606;13.456;2022-10-16T06:54:54;19.60;99.90
11214;DHT22;5664;48.606;13.456;2022-10-16T06:57:19;19.70;99.90
11214;DHT22;5664;48.606;13.456;2022-10-16T06:59:45;19.70;99.90
11214;DHT22;5664;48.606;13.456;2022-10-16T07:02:10;19.60;99.90
11214;DHT22;5664;48.606;13.456;2022-10-16T07:04:36;19.70;99.90
11214;DHT22;5664;48.606;13.456;2022-10-16T07:07:02;19.60;99.90
11214;DHT22;5664;48.606;13.456;2022-10-16T07:09:27;19.70;99.90
11214;DHT22;5664;48.606;13.456;2022-10-16T07:11:53;19.70;99.90
11214;DHT22;5664;48.606;13.456;2022-10-16T07:14:19;19.70;99.90
11214;DHT22;5664;48.606;13.456;2022-10-16T07:16:45;19.70;99.90
11214;DHT22;5664;48.606;13.456;2022-10-16T07:19:10;19.70;99.90
11214;DHT22;5664;48.606;13.456;2022-10-16T07:21:38;19.70;99.90
11214;DHT22;5664;48.606;13.456;2022-10-16T07:24:05;19.70;99.90
11214;DHT22;5664;48.606;13.456;2022-10-16T07:26:32;19.70;99.90
11214;DHT22;5664;48.606;13.456;2022-10-16T07:28:57;19.70;99.90
11214;DHT22;5664;48.606;13.456;2022-10-16T07:31:23;19.10;99.90
11214;DHT22;5664;48.606;13.456;2022-10-16T07:33:49;19.70;99.90
11214;DHT22;5664;48.606;13.456;2022-10-16T07:36:15;19.70;99.90
11214;DHT22;5664;48.606;13.456;2022-10-16T07:38:41;19.70;99.90
11214;DHT22;5664;48.606;13.456;2022-10-16T07:41:09;19.70;99.90
11214;DHT22;5664;48.606;13.456;2022-10-16T07:43:35;19.70;99.90
11214;DHT22;5664;48.606;13.456;2022-10-16T07:46:00;19.70;99.90
11214;DHT22;5664;48.606;13.456;2022-10-16T07:48:29;19.70;99.90
11214;DHT22;5664;48.606;13.456;2022-10-16T07:50:59;19.70;99.90
11214;DHT22;5664;48.606;13.456;2022-10-16T07:53:24;19.70;99.90
11214;DHT22;5664;48.606;13.456;2022-10-16T07:55:50;19.70;99.90
11214;DHT22;5664;48.606;13.456;2022-10-16T07:58:15;19.70;99.90
11214;DHT22;5664;48.606;13.456;2022-10-16T08:00:41;19.70;99.90
11214;DHT22;5664;48.606;13.456;2022-10-16T08:03:07;19.70;99.90
11214;DHT22;5664;48.606;13.456;2022-10-16T08:05:33;19.70;99.90
11214;DHT22;5664;48.606;13.456;2022-10-16T08:07:59;19.70;99.90
11214;DHT22;5664;48.606;13.456;2022-10-16T08:10:26;19.70;99.90
11214;DHT22;5664;48.606;13.456;2022-10-16T08:12:52;19.80;99.90
11214;DHT22;5664;48.606;13.456;2022-10-16T08:15:18;19.80;99.90
11214;DHT22;5664;48.606;13.456;2022-10-16T08:17:43;19.80;99.90
11214;DHT22;5664;48.606;13.456;2022-10-16T08:20:09;19.80;99.90
11214;DHT22;5664;48.606;13.456;2022-10-16T08:22:35;19.80;99.90
11214;DHT22;5664;48.606;13.456;2022-10-16T08:25:00;19.80;99.90
11214;DHT22;5664;48.606;13.456;2022-10-16T08:27:30;19.80;99.90
11214;DHT22;5664;48.606;13.456;2022-10-16T08:29:56;19.80;99.90
11214;DHT22;5664;48.606;13.456;2022-10-16T08:32:21;19.80;99.90
11214;DHT22;5664;48.606;13.456;2022-10-16T08:34:46;19.80;99.90
11214;DHT22;5664;48.606;13.456;2022-10-16T08:37:12;19.80;99.90
11214;DHT22;5664;48.606;13.456;2022-10-16T08:39:38;19.80;99.90
11214;DHT22;5664;48.606;13.456;2022-10-16T08:47:13;19.90;99.90
11214;DHT22;5664;48.606;13.456;2022-10-16T08:49:41;19.90;99.90
11214;DHT22;5664;48.606;13.456;2022-10-16T08:52:10;19.90;99.90
11214;DHT22;5664;48.606;13.456;2022-10-16T08:54:43;19.90;99.90
11214;DHT22;5664;48.606;13.456;2022-10-16T08:57:14;19.90;99.90
11214;DHT22;5664;48.606;13.456;2022-10-16T08:59:41;19.90;99.90
11214;DHT22;5664;48.606;13.456;2022-10-16T09:02:24;19.90;99.90
11214;DHT22;5664;48.606;13.456;2022-10-16T09:04:58;19.90;99.90
11214;DHT22;5664;48.606;13.456;2022-10-16T09:07:29;19.90;99.90
11214;DHT22;5664;48.606;13.456;2022-10-16T09:10:03;20.00;99.90
11214;DHT22;5664;48.606;13.456;2022-10-16T09:12:33;20.00;99.90
11214;DHT22;5664;48.606;13.456;2022-10-16T09:20:34;20.00;99.90
11214;DHT22;5664;48.606;13.456;2022-10-16T09:25:29;20.10;99.90
11214;DHT22;5664;48.606;13.456;2022-10-16T09:27:55;20.00;99.90
11214;DHT22;5664;48.606;13.456;2022-10-16T09:30:21;20.00;99.90
11214;DHT22;5664;48.606;13.456;2022-10-16T09:32:48;20.00;99.90
11214;DHT22;5664;48.606;13.456;2022-10-16T09:35:19;20.00;99.90
11214;DHT22;5664;48.606;13.456;2022-10-16T09:37:45;20.10;99.90
11214;DHT22;5664;48.606;13.456;2022-10-16T09:40:13;20.10;99.90
11214;DHT22;5664;48.606;13.456;2022-10-16T09:42:38;20.10;99.90
11214;DHT22;5664;48.606;13.456;2022-10-16T09:45:04;20.10;99.90
11214;DHT22;5664;48.606;13.456;2022-10-16T09:47:30;20.10;99.90
11214;DHT22;5664;48.606;13.456;2022-10-16T09:50:00;20.10;99.90
11214;DHT22;5664;48.606;13.456;2022-10-16T09:52:30;20.10;99.90
11214;DHT22;5664;48.606;13.456;2022-10-16T09:54:57;20.10;99.90
11214;DHT22;5664;48.606;13.456;2022-10-16T09:57:23;20.10;99.90
11214;DHT22;5664;48.606;13.456;2022-10-16T09:59:50;20.10;99.90
11214;DHT22;5664;48.606;13.456;2022-10-16T10:02:16;20.10;99.90
11214;DHT22;5664;48.606;13.456;2022-10-16T10:04:52;20.10;99.90
11214;DHT22;5664;48.606;13.456;2022-10-16T10:07:25;20.10;99.90
11214;DHT22;5664;48.606;13.456;2022-10-16T10:09:51;20.10;99.90
11214;DHT22;5664;48.606;13.456;2022-10-16T10:12:18;20.10;99.90
11214;DHT22;5664;48.606;13.456;2022-10-16T10:14:45;20.10;99.90
11214;DHT22;5664;48.606;13.456;2022-10-16T10:17:13;20.10;99.90
11214;DHT22;5664;48.606;13.456;2022-10-16T10:22:22;20.10;99.90
11214;DHT22;5664;48.606;13.456;2022-10-16T10:27:42;20.10;99.90
11214;DHT22;5664;48.606;13.456;2022-10-16T10:30:14;20.10;99.90
11214;DHT22;5664;48.606;13.456;2022-10-16T10:32:47;20.10;99.90
11214;DHT22;5664;48.606;13.456;2022-10-16T10:35:19;20.10;99.90
11214;DHT22;5664;48.606;13.456;2022-10-16T10:38:20;20.10;99.90
11214;DHT22;5664;48.606;13.456;2022-10-16T10:40:43;20.10;99.90
11214;DHT22;5664;48.606;13.456;2022-10-16T10:45:52;20.10;99.90
11214;DHT22;5664;48.606;13.456;2022-10-16T10:51:12;20.10;99.90
11214;DHT22;5664;48.606;13.456;2022-10-16T10:59:05;20.10;99.90
11214;DHT22;5664;48.606;13.456;2022-10-16T11:01:48;20.10;99.90
11214;DHT22;5664;48.606;13.456;2022-10-16T11:06:57;20.10;99.90
11214;DHT22;5664;48.606;13.456;2022-10-16T11:09:25;20.10;99.90
11214;DHT22;5664;48.606;13.456;2022-10-16T11:11:54;20.10;99.90
11214;DHT22;5664;48.606;13.456;2022-10-16T11:14:23;20.10;99.90
11214;DHT22;5664;48.606;13.456;2022-10-16T11:16:54;20.10;99.90
11214;DHT22;5664;48.606;13.456;2022-10-16T11:19:32;20.10;99.90
11214;DHT22;5664;48.606;13.456;2022-10-16T11:30:29;20.10;99.90
11214;DHT22;5664;48.606;13.456;2022-10-16T11:35:41;20.10;99.90
11214;DHT22;5664;48.606;13.456;2022-10-16T11:38:10;20.10;99.90
11214;DHT22;5664;48.606;13.456;2022-10-16T11:40:38;20.10;99.90
11214;DHT22;5664;48.606;13.456;2022-10-16T11:45:42;20.10;99.90
11214;DHT22;5664;48.606;13.456;2022-10-16T11:48:15;20.10;99.90
11214;DHT22;5664;48.606;13.456;2022-10-16T11:50:43;20.10;99.90
11214;DHT22;5664;48.606;13.456;2022-10-16T11:55:55;20.10;99.90
11214;DHT22;5664;48.606;13.456;2022-10-16T11:58:28;20.10;99.90
11214;DHT22;5664;48.606;13.456;2022-10-16T12:03:27;20.10;99.90
11214;DHT22;5664;48.606;13.456;2022-10-16T12:06:06;20.10;99.90
11214;DHT22;5664;48.606;13.456;2022-10-16T12:08:36;20.20;99.90
11214;DHT22;5664;48.606;13.456;2022-10-16T12:11:08;20.20;99.90
11214;DHT22;5664;48.606;13.456;2022-10-16T12:13:35;20.20;99.90
11214;DHT22;5664;48.606;13.456;2022-10-16T12:18:36;20.10;99.90
11214;DHT22;5664;48.606;13.456;2022-10-16T12:21:02;20.10;99.90
11214;DHT22;5664;48.606;13.456;2022-10-16T12:26:27;20.10;99.90
11214;DHT22;5664;48.606;13.456;2022-10-16T12:28:54;20.20;99.90
11214;DHT22;5664;48.606;13.456;2022-10-16T12:31:20;20.20;99.90
11214;DHT22;5664;48.606;13.456;2022-10-16T12:33:54;20.20;99.90
11214;DHT22;5664;48.606;13.456;2022-10-16T12:36:33;20.10;99.90
11214;DHT22;5664;48.606;13.456;2022-10-16T12:38:59;20.10;99.90
11214;DHT22;5664;48.606;13.456;2022-10-16T12:41:29;20.20;99.90
11214;DHT22;5664;48.606;13.456;2022-10-16T12:43:55;20.10;99.90
11214;DHT22;5664;48.606;13.456;2022-10-16T12:46:34;20.10;99.90
11214;DHT22;5664;48.606;13.456;2022-10-16T12:51:38;20.10;99.90
11214;DHT22;5664;48.606;13.456;2022-10-16T12:54:11;20.20;99.90
11214;DHT22;5664;48.606;13.456;2022-10-16T12:56:42;20.20;99.90
11214;DHT22;5664;48.606;13.456;2022-10-16T12:59:16;20.20;99.90
11214;DHT22;5664;48.606;13.456;2022-10-16T13:01:55;20.10;99.90
11214;DHT22;5664;48.606;13.456;2022-10-16T13:04:39;20.20;99.90
11214;DHT22;5664;48.606;13.456;2022-10-16T13:09:43;20.20;99.90
11214;DHT22;5664;48.606;13.456;2022-10-16T13:22:27;20.20;99.90
11214;DHT22;5664;48.606;13.456;2022-10-16T13:27:38;20.20;99.90
11214;DHT22;5664;48.606;13.456;2022-10-16T13:30:20;20.20;99.90
11214;DHT22;5664;48.606;13.456;2022-10-16T13:32:47;20.20;99.90
11214;DHT22;5664;48.606;13.456;2022-10-16T13:35:21;20.20;99.90
11214;DHT22;5664;48.606;13.456;2022-10-16T13:37:46;20.20;99.90
11214;DHT22;5664;48.606;13.456;2022-10-16T13:40:22;20.20;99.90
11214;DHT22;5664;48.606;13.456;2022-10-16T13:42:48;20.10;99.90
11214;DHT22;5664;48.606;13.456;2022-10-16T13:45:21;20.20;99.90
11214;DHT22;5664;48.606;13.456;2022-10-16T13:47:47;20.20;99.90
11214;DHT22;5664;48.606;13.456;2022-10-16T13:50:15;20.20;99.90
11214;DHT22;5664;48.606;13.456;2022-10-16T13:52:40;20.20;99.90
11214;DHT22;5664;48.606;13.456;2022-10-16T13:55:13;20.20;99.90
11214;DHT22;5664;48.606;13.456;2022-10-16T13:57:39;20.20;99.90
11214;DHT22;5664;48.606;13.456;2022-10-16T14:00:21;20.20;99.90
11214;DHT22;5664;48.606;13.456;2022-10-16T14:02:51;20.20;99.90
11214;DHT22;5664;48.606;13.456;2022-10-16T14:05:19;20.10;99.90
11214;DHT22;5664;48.606;13.456;2022-10-16T14:07:47;20.10;99.90
11214;DHT22;5664;48.606;13.456;2022-10-16T14:10:25;20.20;99.90
11214;DHT22;5664;48.606;13.456;2022-10-16T14:12:58;20.20;99.90
11214;DHT22;5664;48.606;13.456;2022-10-16T14:15:24;20.10;99.90
11214;DHT22;5664;48.606;13.456;2022-10-16T14:17:50;20.10;99.90
11214;DHT22;5664;48.606;13.456;2022-10-16T14:20:16;20.10;99.90
11214;DHT22;5664;48.606;13.456;2022-10-16T14:22:41;20.20;99.90
11214;DHT22;5664;48.606;13.456;2022-10-16T14:25:20;20.10;99.90
11214;DHT22;5664;48.606;13.456;2022-10-16T14:28:48;20.20;99.90
11214;DHT22;5664;48.606;13.456;2022-10-16T14:33:34;20.10;99.90
11214;DHT22;5664;48.606;13.456;2022-10-16T14:36:01;20.10;99.90
11214;DHT22;5664;48.606;13.456;2022-10-16T14:38:26;20.20;99.90
11214;DHT22;5664;48.606;13.456;2022-10-16T14:40:52;20.20;99.90
11214;DHT22;5664;48.606;13.456;2022-10-16T14:43:21;20.10;99.90
11214;DHT22;5664;48.606;13.456;2022-10-16T14:45:54;20.10;99.90
11214;DHT22;5664;48.606;13.456;2022-10-16T14:48:21;20.20;99.90
11214;DHT22;5664;48.606;13.456;2022-10-16T14:50:46;20.20;99.90
11214;DHT22;5664;48.606;13.456;2022-10-16T14:53:12;20.20;99.90
11214;DHT22;5664;48.606;13.456;2022-10-16T14:55:38;20.20;99.90
11214;DHT22;5664;48.606;13.456;2022-10-16T14:58:04;20.20;99.90
11214;DHT22;5664;48.606;13.456;2022-10-16T15:00:29;20.20;99.90
11214;DHT22;5664;48.606;13.456;2022-10-16T15:02:55;20.10;99.90
11214;DHT22;5664;48.606;13.456;2022-10-16T15:05:21;20.20;99.90
11214;DHT22;5664;48.606;13.456;2022-10-16T15:07:47;20.10;99.90
11214;DHT22;5664;48.606;13.456;2022-10-16T15:10:14;20.10;99.90
11214;DHT22;5664;48.606;13.456;2022-10-16T15:12:40;20.10;99.90
11214;DHT22;5664;48.606;13.456;2022-10-16T15:17:50;20.10;99.90
11214;DHT22;5664;48.606;13.456;2022-10-16T15:20:22;20.20;99.90
11214;DHT22;5664;48.606;13.456;2022-10-16T15:22:47;20.10;99.90
11214;DHT22;5664;48.606;13.456;2022-10-16T15:27:58;20.10;99.90
11214;DHT22;5664;48.606;13.456;2022-10-16T15:30:23;20.10;99.90
11214;DHT22;5664;48.606;13.456;2022-10-16T15:32:49;20.10;99.90
11214;DHT22;5664;48.606;13.456;2022-10-16T15:35:14;20.10;99.90
11214;DHT22;5664;48.606;13.456;2022-10-16T15:37:39;20.10;99.90
11214;DHT22;5664;48.606;13.456;2022-10-16T15:40:05;20.10;99.90
11214;DHT22;5664;48.606;13.456;2022-10-16T15:42:30;20.10;99.90
11214;DHT22;5664;48.606;13.456;2022-10-16T15:44:56;20.10;99.90
11214;DHT22;5664;48.606;13.456;2022-10-16T15:47:21;20.10;99.90
11214;DHT22;5664;48.606;13.456;2022-10-16T15:49:47;20.10;99.90
11214;DHT22;5664;48.606;13.456;2022-10-16T15:52:12;20.10;99.90
11214;DHT22;5664;48.606;13.456;2022-10-16T15:54:38;20.10;99.90
11214;DHT22;5664;48.606;13.456;2022-10-16T15:57:03;20.10;99.90
11214;DHT22;5664;48.606;13.456;2022-10-16T15:59:29;20.10;99.90
11214;DHT22;5664;48.606;13.456;2022-10-16T16:01:55;20.10;99.90
11214;DHT22;5664;48.606;13.456;2022-10-16T16:04:20;20.10;99.90
11214;DHT22;5664;48.606;13.456;2022-10-16T16:06:46;20.10;99.90
11214;DHT22;5664;48.606;13.456;2022-10-16T16:09:12;20.10;99.90
11214;DHT22;5664;48.606;13.456;2022-10-16T16:11:38;20.10;99.90
11214;DHT22;5664;48.606;13.456;2022-10-16T16:14:05;20.20;99.90
11214;DHT22;5664;48.606;13.456;2022-10-16T16:16:30;20.20;99.90
11214;DHT22;5664;48.606;13.456;2022-10-16T16:18:57;20.20;99.90
11214;DHT22;5664;48.606;13.456;2022-10-16T16:21:22;20.20;99.90
11214;DHT22;5664;48.606;13.456;2022-10-16T16:23:48;20.20;99.90
11214;DHT22;5664;48.606;13.456;2022-10-16T16:26:14;20.20;99.90
11214;DHT22;5664;48.606;13.456;2022-10-16T16:28:40;20.20;99.90
11214;DHT22;5664;48.606;13.456;2022-10-16T16:31:06;20.20;99.90
11214;DHT22;5664;48.606;13.456;2022-10-16T16:33:31;20.30;99.90
11214;DHT22;5664;48.606;13.456;2022-10-16T16:35:58;20.30;99.90
11214;DHT22;5664;48.606;13.456;2022-10-16T16:38:24;20.30;99.90
11214;DHT22;5664;48.606;13.456;2022-10-16T16:40:49;20.30;99.90
11214;DHT22;5664;48.606;13.456;2022-10-16T16:43:15;20.40;99.90
11214;DHT22;5664;48.606;13.456;2022-10-16T16:45:40;20.40;99.90
11214;DHT22;5664;48.606;13.456;2022-10-16T16:48:06;20.40;99.90
11214;DHT22;5664;48.606;13.456;2022-10-16T16:50:35;20.40;99.90
11214;DHT22;5664;48.606;13.456;2022-10-16T16:53:01;20.40;99.90
11214;DHT22;5664;48.606;13.456;2022-10-16T16:55:27;20.40;99.90
11214;DHT22;5664;48.606;13.456;2022-10-16T16:57:52;20.50;99.90
11214;DHT22;5664;48.606;13.456;2022-10-16T17:00:17;20.50;99.90
11214;DHT22;5664;48.606;13.456;2022-10-16T17:02:43;20.50;99.90
11214;DHT22;5664;48.606;13.456;2022-10-16T17:05:10;20.40;99.90
11214;DHT22;5664;48.606;13.456;2022-10-16T17:07:36;20.40;99.90
11214;DHT22;5664;48.606;13.456;2022-10-16T17:10:05;20.40;99.90
11214;DHT22;5664;48.606;13.456;2022-10-16T17:12:31;20.40;99.90